Weather at Ile D'Yeu Port Joinville Heliport

Public forecast

Using degrees Celsius for public forecast. Weather courtesy of forecast.io.

Closest aviation weather report (METAR) to Ile D'Yeu Port Joinville Heliport

Closest report is Saint-Nazaire-Montoir Airport, 35.9 nm (66.4 km) NNE. Retrieved 2021/09/16 11:30 UTC (0 seconds ago):

LFRZ 161130Z AUTO 02005KT 320V080 9999 SCT025 21/14 Q1019 NOSIG

Closest aviation forecast (TAF) to Ile D'Yeu Port Joinville Heliport

Closest forecast is Saint-Nazaire-Montoir Airport, 35.9 nm (66.4 km) NNE. Retrieved 2021/09/16 06:21 UTC (5 hours ago):

TAF LFRZ 160500Z 1606/1706 36006KT 9999 SCT030 TEMPO 1606/1607 4000 BR TEMPO 1615/1619 30010KT